This is the latest recevied weather packets stored in our database for station/object KO6TH-15. If no packets are shown the sender has not sent any weather packets the latest 10 day(s).
| Time | Temp. | Humidity | Pressure | Rain* | Wind** | Luminosity | Snow |
|---|---|---|---|---|---|---|---|
| 1777568751 | 20.56° C | 65% | 0 hPa | 0 mm | - | - | - |
| 1777568121 | 20° C | 66% | 0 hPa | 0 mm | - | - | - |
| 1777567491 | 20° C | 65% | 0 hPa | 0 mm | - | - | - |
| 1777566861 | 19.44° C | 67% | 0 hPa | 0 mm | - | - | - |
| 1777566231 | 17.78° C | 68% | 0 hPa | 0 mm | - | - | - |
| 1777565630 | 17.78° C | 70% | 0 hPa | 0 mm | - | - | - |
| 1777565031 | 17.22° C | 71% | 0 hPa | 0 mm | - | - | - |
| 1777564401 | 17.22° C | 75% | 0 hPa | 0 mm | - | - | - |
| 1777563771 | 17.22° C | 78% | 0 hPa | 0 mm | - | - | - |
| 1777563171 | 16.67° C | 78% | 0 hPa | 0 mm | - | - | - |
| 1777562541 | 15° C | 84% | 0 hPa | 0 mm | - | - | - |
| 1777561911 | 14.44° C | 85% | 0 hPa | 0 mm | - | - | - |
| 1777561281 | 13.89° C | 87% | 0 hPa | 0 mm | - | - | - |
| 1777560651 | 11.67° C | 96% | 0 hPa | 0 mm | - | - | - |
| 1777560020 | 11.11° C | 98% | 0 hPa | 0 mm | - | - | - |
| 1777559421 | 10° C | 99% | 0 hPa | 0 mm | - | - | - |
| 1777558791 | 8.33° C | 99% | 0 hPa | 0 mm | - | - | - |
| 1777558191 | 8.33° C | 99% | 0 hPa | 0 mm | - | - | - |
| 1777557561 | 7.78° C | 99% | 0 hPa | 0 mm | - | - | - |
| 1777556961 | 7.22° C | 99% | 0 hPa | 0 mm | - | - | - |
| 1777556331 | 7.22° C | 99% | 0 hPa | 0 mm | - | - | - |
| 1777555730 | 7.22° C | 99% | 0 hPa | 0 mm | - | - | - |
| 1777555101 | 7.22° C | 99% | 0 hPa | 0 mm | - | - | - |
| 1777554501 | 7.22° C | 99% | 0 hPa | 0 mm | - | - | - |
| 1777553871 | 7.22° C | 99% | 0 hPa | 0 mm | - | - | - |
* Rain latest hour (hover to see other rain measurements)
** Current wind speed in m/s (hover to see current wind gust speed)